createdAt,value
2019-03-08T00:01:55.485Z,10.63
2019-03-08T00:04:29.089Z,10.60
2019-03-08T00:06:58.035Z,12.50
2019-03-08T00:12:04.928Z,9.37
2019-03-08T00:14:40.347Z,14.87
2019-03-08T00:17:09.559Z,11.27
2019-03-08T00:19:38.464Z,13.20
2019-03-08T00:22:07.677Z,10.17
2019-03-08T00:24:36.903Z,11.27
2019-03-08T00:27:09.239Z,12.23
2019-03-08T00:29:38.011Z,18.67
2019-03-08T00:32:10.786Z,21.63
2019-03-08T00:34:39.869Z,20.77
2019-03-08T00:37:09.182Z,15.90
2019-03-08T00:39:38.136Z,17.87
2019-03-08T00:42:10.387Z,12.80
2019-03-08T00:44:39.134Z,20.57
2019-03-08T00:47:07.804Z,15.77
2019-03-08T00:49:36.413Z,17.37
2019-03-08T00:52:05.404Z,16.17
2019-03-08T00:54:33.932Z,20.03
2019-03-08T00:57:04.305Z,16.80
2019-03-08T00:59:35.431Z,14.27
2019-03-08T01:02:04.195Z,10.60
2019-03-08T01:04:38.381Z,13.73
2019-03-08T01:07:09.299Z,16.03
2019-03-08T01:09:43.652Z,15.70
2019-03-08T01:12:25.664Z,18.33
2019-03-08T01:14:57.165Z,19.73
2019-03-08T01:17:28.581Z,28.03
2019-03-08T01:20:03.235Z,24.77
2019-03-08T01:22:56.527Z,16.87
2019-03-08T01:25:53.718Z,16.67
2019-03-08T01:28:18.304Z,24.13
2019-03-08T01:30:47.414Z,22.00
2019-03-08T01:33:16.505Z,23.23
2019-03-08T01:35:45.536Z,22.10
2019-03-08T01:38:14.207Z,15.03
2019-03-08T01:40:43.349Z,26.63
2019-03-08T01:43:12.095Z,21.47
2019-03-08T01:45:40.807Z,22.83
2019-03-08T01:48:12.537Z,29.53
2019-03-08T01:50:41.453Z,32.07
2019-03-08T01:53:10.063Z,29.10
2019-03-08T01:55:38.866Z,23.93
2019-03-08T01:58:07.549Z,34.63
2019-03-08T02:00:36.404Z,20.20
2019-03-08T02:03:05.008Z,23.17
2019-03-08T02:05:33.597Z,26.40
2019-03-08T02:08:02.338Z,26.37
2019-03-08T02:10:31.179Z,22.17
2019-03-08T02:12:59.815Z,20.13
2019-03-08T02:15:28.572Z,38.83
2019-03-08T02:17:57.342Z,26.97
2019-03-08T02:20:26.055Z,34.43
2019-03-08T02:22:54.716Z,21.80
2019-03-08T02:25:23.441Z,25.73
2019-03-08T02:27:52.174Z,36.83
2019-03-08T02:30:20.772Z,27.50
2019-03-08T02:32:49.489Z,28.07
2019-03-08T02:35:18.707Z,29.50
2019-03-08T02:37:47.501Z,34.20
2019-03-08T02:40:44.480Z,25.23
2019-03-08T02:43:24.675Z,29.43
2019-03-08T02:46:07.707Z,25.23
2019-03-08T02:48:45.965Z,27.73
2019-03-08T02:51:25.402Z,22.87
2019-03-08T02:53:58.768Z,28.47
2019-03-08T02:56:28.104Z,31.77
2019-03-08T02:58:59.622Z,24.03
2019-03-08T03:01:28.569Z,28.63
2019-03-08T03:04:04.716Z,33.13
2019-03-08T03:06:36.345Z,30.00
2019-03-08T03:09:17.522Z,36.37
2019-03-08T03:11:59.243Z,34.40
2019-03-08T03:14:29.994Z,25.23
2019-03-08T03:16:58.811Z,23.93
2019-03-08T03:19:31.399Z,21.70
2019-03-08T03:22:00.870Z,29.30
2019-03-08T03:24:30.598Z,25.67
2019-03-08T03:27:01.372Z,30.83
2019-03-08T03:29:38.533Z,27.57
2019-03-08T03:32:23.974Z,27.57
2019-03-08T03:34:55.909Z,24.97
2019-03-08T03:37:25.503Z,27.07
2019-03-08T03:39:59.211Z,27.53
2019-03-08T03:42:28.756Z,26.43
2019-03-08T03:44:59.182Z,25.53
2019-03-08T03:47:28.693Z,22.73
2019-03-08T03:50:01.522Z,24.47
2019-03-08T03:52:31.502Z,31.00
2019-03-08T03:55:03.187Z,31.53
2019-03-08T03:57:31.944Z,30.37
2019-03-08T04:00:01.325Z,32.30
2019-03-08T04:02:40.389Z,28.87
2019-03-08T04:05:14.649Z,33.27
2019-03-08T04:07:51.642Z,25.50
2019-03-08T04:10:26.748Z,35.37
2019-03-08T04:12:55.664Z,30.17
2019-03-08T04:15:34.788Z,30.33
2019-03-08T04:18:04.333Z,36.50
2019-03-08T04:20:45.898Z,26.67
2019-03-08T04:23:15.353Z,49.43
2019-03-08T04:25:47.280Z,31.17
2019-03-08T04:28:22.642Z,27.67
2019-03-08T04:30:51.926Z,32.40
2019-03-08T04:33:20.873Z,29.63
2019-03-08T04:35:59.978Z,37.37
2019-03-08T04:38:39.515Z,26.73
2019-03-08T04:41:08.743Z,27.03
2019-03-08T04:43:37.489Z,35.10
2019-03-08T04:46:06.320Z,28.30
2019-03-08T04:48:35.814Z,31.30
2019-03-08T04:51:05.137Z,29.00
2019-03-08T04:53:48.754Z,26.77
2019-03-08T04:59:36.760Z,18.90
2019-03-08T05:02:06.301Z,33.73
2019-03-08T05:04:59.163Z,21.03
2019-03-08T05:15:33.492Z,43.13
2019-03-08T05:17:53.271Z,28.60
2019-03-08T05:20:29.302Z,25.90
2019-03-08T05:26:13.498Z,22.57
2019-03-08T05:29:37.507Z,32.13
2019-03-08T05:32:33.123Z,27.73
2019-03-08T05:35:05.792Z,23.13
2019-03-08T05:37:35.456Z,24.43
2019-03-08T05:40:11.447Z,16.27
2019-03-08T05:42:43.158Z,23.23
2019-03-08T05:45:15.782Z,21.40
2019-03-08T05:47:44.713Z,25.13
2019-03-08T05:50:21.458Z,32.97
2019-03-08T05:53:09.156Z,21.00
2019-03-08T05:55:42.533Z,21.83
2019-03-08T05:58:59.633Z,23.97
2019-03-08T06:02:27.137Z,24.13
2019-03-08T06:05:07.515Z,24.03
2019-03-08T06:11:34.358Z,18.10
2019-03-08T06:14:55.926Z,27.80
2019-03-08T06:17:57.136Z,19.37
2019-03-08T06:24:32.615Z,22.53
2019-03-08T06:27:14.430Z,14.20
2019-03-08T06:30:01.956Z,23.57
2019-03-08T06:32:42.966Z,27.73
2019-03-08T06:35:11.770Z,25.60
2019-03-08T06:37:40.681Z,20.30
2019-03-08T06:40:09.379Z,23.43
2019-03-08T06:42:39.418Z,28.87
2019-03-08T06:45:12.020Z,24.97
2019-03-08T06:47:48.488Z,27.70
2019-03-08T06:50:22.026Z,23.67
2019-03-08T06:53:04.767Z,22.17
2019-03-08T07:04:27.246Z,21.60
2019-03-08T07:07:14.347Z,21.37
2019-03-08T07:13:29.271Z,17.33
2019-03-08T07:16:21.890Z,24.60
2019-03-08T07:19:11.207Z,18.07
2019-03-08T07:21:52.181Z,20.27
2019-03-08T07:24:38.446Z,19.33
2019-03-08T07:27:20.643Z,25.60
2019-03-08T07:30:07.051Z,20.07
2019-03-08T07:32:44.187Z,18.97
2019-03-08T07:35:31.906Z,17.53
2019-03-08T07:38:29.096Z,22.97
2019-03-08T07:41:16.735Z,20.43
2019-03-08T07:44:06.889Z,14.20
2019-03-08T07:47:12.675Z,20.10
2019-03-08T07:49:59.048Z,23.37
2019-03-08T07:52:55.648Z,19.80
2019-03-08T07:55:46.693Z,18.37
2019-03-08T07:58:29.416Z,20.60
2019-03-08T08:01:09.872Z,17.33
2019-03-08T08:03:50.263Z,23.43
2019-03-08T08:06:24.198Z,13.77
2019-03-08T08:09:26.201Z,19.80
2019-03-08T08:12:12.839Z,22.47
2019-03-08T08:14:59.795Z,23.53
2019-03-08T08:17:46.220Z,18.33
2019-03-08T08:20:37.311Z,24.13
2019-03-08T08:23:15.801Z,14.60
2019-03-08T08:26:03.492Z,14.60
2019-03-08T08:28:49.596Z,19.87
2019-03-08T08:31:30.251Z,14.03
2019-03-08T08:34:17.931Z,17.73
2019-03-08T08:37:11.705Z,19.07
2019-03-08T08:39:57.890Z,18.07
2019-03-08T08:42:36.013Z,18.70
2019-03-08T08:45:23.949Z,21.97
2019-03-08T08:48:17.488Z,20.50
2019-03-08T08:51:08.293Z,20.60
2019-03-08T08:54:11.295Z,19.53
2019-03-08T08:56:49.290Z,16.00
2019-03-08T08:59:52.388Z,16.53
2019-03-08T09:02:37.102Z,22.83
2019-03-08T09:05:28.129Z,12.20
2019-03-08T09:08:03.068Z,20.50
2019-03-08T09:10:49.490Z,19.53
2019-03-08T09:13:29.951Z,15.47
2019-03-08T09:16:13.392Z,16.57
2019-03-08T09:19:00.925Z,12.83
2019-03-08T09:21:41.027Z,14.13
2019-03-08T09:24:31.716Z,14.73
2019-03-08T09:27:18.209Z,12.57
2019-03-08T09:30:09.201Z,11.47
2019-03-08T09:32:58.875Z,22.73
2019-03-08T09:35:25.612Z,22.23
2019-03-08T09:38:03.216Z,24.50
2019-03-08T09:41:00.532Z,19.00
2019-03-08T09:43:57.283Z,16.97
2019-03-08T09:46:56.996Z,15.67
2019-03-08T09:49:36.738Z,19.53
2019-03-08T09:52:36.180Z,15.30
2019-03-08T09:55:24.199Z,25.03
2019-03-08T09:58:07.547Z,17.20
2019-03-08T10:01:01.063Z,17.30
2019-03-08T10:03:54.113Z,10.60
2019-03-08T10:06:40.511Z,13.67
2019-03-08T10:09:34.342Z,12.90
2019-03-08T10:12:16.858Z,18.73
2019-03-08T10:14:52.797Z,16.90
2019-03-08T10:17:49.603Z,22.83
2019-03-08T10:20:42.388Z,10.90
2019-03-08T10:23:28.659Z,16.30
2019-03-08T10:26:19.928Z,18.00
2019-03-08T10:29:20.753Z,18.80
2019-03-08T10:32:01.432Z,17.43
2019-03-08T10:34:43.781Z,17.87
2019-03-08T10:37:39.528Z,13.97
2019-03-08T10:40:21.954Z,22.37
2019-03-08T10:42:56.281Z,19.10
2019-03-08T10:45:34.057Z,18.30
2019-03-08T10:48:20.386Z,15.73
2019-03-08T10:50:57.900Z,17.33
2019-03-08T10:53:46.004Z,14.63
2019-03-08T10:56:28.442Z,15.97
2019-03-08T10:59:31.484Z,14.40
2019-03-08T11:02:14.107Z,12.30
2019-03-08T11:04:55.733Z,16.67
2019-03-08T11:07:50.342Z,22.60
2019-03-08T11:10:37.712Z,14.70
2019-03-08T11:13:16.531Z,12.23
2019-03-08T11:16:05.083Z,14.57
2019-03-08T11:19:08.494Z,15.10
2019-03-08T11:22:03.812Z,15.17
2019-03-08T11:24:42.318Z,8.53
2019-03-08T11:27:36.206Z,18.07
2019-03-08T11:30:16.423Z,14.77
2019-03-08T11:33:22.571Z,15.57
2019-03-08T11:36:19.741Z,13.20
2019-03-08T11:39:13.626Z,12.00
2019-03-08T11:42:01.184Z,13.73
2019-03-08T11:44:35.869Z,12.17
2019-03-08T11:47:27.208Z,10.30
2019-03-08T11:50:24.253Z,16.60
2019-03-08T11:53:12.595Z,12.70
2019-03-08T11:56:10.968Z,14.80
2019-03-08T11:59:05.604Z,11.87
2019-03-08T12:02:00.064Z,11.47
2019-03-08T12:04:55.914Z,10.57
2019-03-08T12:07:41.701Z,13.40
2019-03-08T12:11:01.942Z,13.53
2019-03-08T12:13:43.748Z,11.63
2019-03-08T12:16:43.114Z,10.67
2019-03-08T12:19:32.331Z,10.13
2019-03-08T12:22:25.751Z,11.00
2019-03-08T12:25:14.550Z,7.37
2019-03-08T12:28:01.889Z,8.80
2019-03-08T12:31:14.725Z,12.40
2019-03-08T12:34:02.205Z,6.67
2019-03-08T12:37:01.778Z,12.60
2019-03-08T12:39:45.300Z,16.20
2019-03-08T12:42:39.642Z,8.57
2019-03-08T12:45:30.198Z,9.77
2019-03-08T12:48:23.931Z,7.27
2019-03-08T12:51:06.037Z,6.27
2019-03-08T12:53:47.147Z,5.93
2019-03-08T12:56:39.457Z,9.77
2019-03-08T12:59:20.061Z,6.73
2019-03-08T13:02:01.879Z,6.93
2019-03-08T13:04:51.896Z,21.07
2019-03-08T13:07:28.717Z,7.03
2019-03-08T13:10:09.316Z,6.20
2019-03-08T13:12:37.878Z,8.37
2019-03-08T13:15:06.735Z,6.20
2019-03-08T13:17:35.178Z,10.87
2019-03-08T13:20:04.115Z,6.43
2019-03-08T13:22:32.673Z,9.70
2019-03-08T13:25:01.274Z,8.70
2019-03-08T13:27:30.061Z,9.20
2019-03-08T13:29:58.588Z,8.10
2019-03-08T13:32:27.210Z,7.30
2019-03-08T13:34:55.798Z,7.67
2019-03-08T13:37:24.374Z,6.17
2019-03-08T13:39:55.389Z,11.10
2019-03-08T13:42:23.973Z,6.80
2019-03-08T13:44:52.697Z,6.10
2019-03-08T13:47:21.662Z,7.63
2019-03-08T13:49:50.247Z,10.47
2019-03-08T13:52:18.877Z,11.80
2019-03-08T13:54:47.411Z,10.73
2019-03-08T13:57:17.125Z,8.13
2019-03-08T13:59:45.493Z,11.03
2019-03-08T14:02:13.938Z,8.37
2019-03-08T14:04:42.487Z,10.60
2019-03-08T14:07:10.973Z,8.70
2019-03-08T14:09:39.415Z,14.07
2019-03-08T14:12:07.895Z,8.07
2019-03-08T14:14:36.645Z,5.13
2019-03-08T14:17:05.031Z,9.77
2019-03-08T14:19:33.537Z,7.30
2019-03-08T14:22:02.504Z,9.67
2019-03-08T14:24:32.145Z,7.73
2019-03-08T14:27:01.923Z,8.80
2019-03-08T14:29:31.710Z,12.90
2019-03-08T14:32:07.225Z,11.20
2019-03-08T14:34:35.766Z,8.03
2019-03-08T14:37:05.237Z,10.13
2019-03-08T14:39:34.701Z,9.37
2019-03-08T14:42:15.508Z,9.90
2019-03-08T14:45:07.707Z,13.50
2019-03-08T14:47:40.675Z,11.20
2019-03-08T14:50:15.983Z,10.47
2019-03-08T14:52:45.381Z,11.23
2019-03-08T14:55:18.990Z,9.57
2019-03-08T14:57:48.730Z,13.27
2019-03-08T15:00:27.649Z,12.03
2019-03-08T15:02:56.170Z,10.87
2019-03-08T15:05:26.795Z,10.60
2019-03-08T15:08:00.651Z,11.13
2019-03-08T15:10:38.833Z,11.70
2019-03-08T15:13:05.692Z,12.20
2019-03-08T15:15:34.899Z,11.23
2019-03-08T15:18:03.697Z,11.40
2019-03-08T15:20:32.996Z,11.00
2019-03-08T15:23:02.560Z,14.37
2019-03-08T15:25:31.566Z,11.57
2019-03-08T15:28:03.529Z,11.03
2019-03-08T15:30:32.290Z,9.60
2019-03-08T15:33:01.216Z,13.13
2019-03-08T15:35:29.774Z,8.00
2019-03-08T15:37:58.352Z,12.13
2019-03-08T15:40:26.901Z,10.77
2019-03-08T15:42:55.709Z,13.10
2019-03-08T15:45:27.747Z,12.70
2019-03-08T15:47:56.732Z,15.33
2019-03-08T15:50:26.048Z,14.10
2019-03-08T15:52:55.277Z,7.43
2019-03-08T15:55:23.868Z,9.47
2019-03-08T15:57:52.659Z,11.30
2019-03-08T16:00:21.802Z,11.53
2019-03-08T16:02:50.666Z,12.63
2019-03-08T16:05:23.996Z,11.03
2019-03-08T16:07:51.244Z,6.33
2019-03-08T16:10:20.335Z,9.93
2019-03-08T16:12:49.324Z,10.27
2019-03-08T16:15:17.816Z,11.53
2019-03-08T16:17:46.693Z,15.50
2019-03-08T16:20:15.242Z,9.13
2019-03-08T16:22:45.651Z,10.70
2019-03-08T16:25:14.548Z,11.67
2019-03-08T16:27:43.069Z,13.27
2019-03-08T16:30:16.784Z,11.57
2019-03-08T16:33:04.497Z,8.20
2019-03-08T16:35:40.885Z,10.20
2019-03-08T16:38:23.472Z,11.43
2019-03-08T16:41:09.540Z,9.27
2019-03-08T16:43:47.348Z,13.97
2019-03-08T16:46:38.144Z,12.03
2019-03-08T16:49:28.928Z,14.53
2019-03-08T16:52:15.490Z,12.60
2019-03-08T16:55:06.677Z,15.10
2019-03-08T16:57:55.484Z,13.47
2019-03-08T17:00:38.085Z,18.57
2019-03-08T17:03:22.803Z,12.67
2019-03-08T17:06:00.993Z,16.73
2019-03-08T17:08:43.680Z,14.30
2019-03-08T17:11:37.654Z,16.17
2019-03-08T17:14:23.524Z,19.70
2019-03-08T17:17:28.162Z,11.97
2019-03-08T17:20:25.278Z,13.90
2019-03-08T17:23:21.426Z,17.17
2019-03-08T17:25:55.697Z,15.53
2019-03-08T17:28:49.320Z,18.53
2019-03-08T17:31:30.693Z,14.93
2019-03-08T17:34:18.631Z,18.23
2019-03-08T17:37:09.274Z,15.23
2019-03-08T17:39:44.569Z,12.17
2019-03-08T17:42:31.209Z,15.47
2019-03-08T17:45:17.384Z,14.50
2019-03-08T17:48:10.760Z,13.90
2019-03-08T17:51:10.933Z,18.07
2019-03-08T17:53:51.575Z,15.20
2019-03-08T17:56:35.514Z,17.80
2019-03-08T17:59:23.428Z,17.83
2019-03-08T18:02:20.022Z,15.20
2019-03-08T18:05:12.087Z,16.30
2019-03-08T18:15:06.384Z,12.63
2019-03-08T18:17:55.530Z,15.07
2019-03-08T18:20:43.132Z,14.93
2019-03-08T18:26:43.240Z,19.97
2019-03-08T18:29:27.222Z,18.07
2019-03-08T18:32:15.023Z,12.10
2019-03-08T18:35:07.353Z,13.20
2019-03-08T18:37:53.912Z,20.23
2019-03-08T18:40:56.638Z,18.83
2019-03-08T18:43:50.222Z,15.07
2019-03-08T18:46:35.003Z,14.70
2019-03-08T18:49:10.260Z,16.77
2019-03-08T18:51:56.562Z,12.50
2019-03-08T18:54:57.570Z,18.53
2019-03-08T18:57:47.849Z,15.17
2019-03-08T19:00:29.478Z,11.10
2019-03-08T19:03:19.831Z,15.37
2019-03-08T19:06:03.656Z,14.23
2019-03-08T19:08:54.181Z,16.60
2019-03-08T19:11:34.139Z,15.17
2019-03-08T19:14:20.386Z,11.77
2019-03-08T19:17:11.926Z,15.03
2019-03-08T19:19:58.297Z,17.17
2019-03-08T19:22:52.123Z,15.07
2019-03-08T19:25:49.249Z,14.17
2019-03-08T19:28:43.129Z,12.57
2019-03-08T19:31:39.741Z,19.07
2019-03-08T19:34:42.405Z,8.67
2019-03-08T19:37:19.811Z,12.73
2019-03-08T19:40:14.519Z,16.37
2019-03-08T19:43:08.795Z,8.43
2019-03-08T19:46:05.759Z,15.40
2019-03-08T19:49:02.580Z,7.20
2019-03-08T19:52:02.412Z,7.07
2019-03-08T19:54:49.806Z,12.30
2019-03-08T19:57:32.856Z,9.57
2019-03-08T20:00:20.825Z,7.93
2019-03-08T20:03:06.683Z,7.83
2019-03-08T20:05:49.664Z,6.10
2019-03-08T20:08:36.035Z,14.57
2019-03-08T20:11:27.548Z,9.73
2019-03-08T20:14:01.979Z,12.00
2019-03-08T20:16:51.242Z,17.83
2019-03-08T20:19:36.130Z,13.47
2019-03-08T20:22:30.096Z,11.67
2019-03-08T20:25:26.926Z,9.13
2019-03-08T20:28:07.218Z,7.30
2019-03-08T20:31:01.276Z,9.00
2019-03-08T20:33:48.960Z,7.47
2019-03-08T20:36:42.884Z,8.77
2019-03-08T20:39:33.526Z,8.90
2019-03-08T20:42:27.111Z,9.37
2019-03-08T20:45:02.131Z,6.43
2019-03-08T20:47:32.414Z,5.30
2019-03-08T20:50:01.247Z,4.50
2019-03-08T20:52:29.758Z,9.83
2019-03-08T20:54:58.252Z,7.00
2019-03-08T20:57:27.667Z,7.87
2019-03-08T20:59:56.179Z,3.77
2019-03-08T21:02:24.732Z,4.03
2019-03-08T21:04:53.243Z,5.83
2019-03-08T21:07:21.715Z,6.30
2019-03-08T21:09:50.872Z,5.10
2019-03-08T21:12:19.453Z,5.67
2019-03-08T21:14:48.341Z,9.93
2019-03-08T23:32:33.044Z,12.47
2019-03-08T23:35:03.207Z,9.73
2019-03-08T23:37:43.574Z,12.83
2019-03-08T23:40:15.991Z,9.30
2019-03-08T23:43:00.691Z,9.57
2019-03-08T23:45:41.663Z,9.70
2019-03-08T23:48:18.766Z,7.00
2019-03-08T23:50:57.914Z,12.80
2019-03-08T23:53:27.831Z,9.33
2019-03-08T23:56:11.503Z,12.33
2019-03-08T23:59:06.532Z,9.37
